createdAt,value
2022-11-28T00:00:55.924Z,101946.44
2022-11-28T00:03:43.729Z,101949.69
2022-11-28T00:06:31.668Z,101951.28
2022-11-28T00:09:20.615Z,101949.44
2022-11-28T00:12:08.224Z,101951.84
2022-11-28T00:14:55.898Z,101946.66
2022-11-28T00:17:43.585Z,101943.13
2022-11-28T00:20:32.753Z,101945.63
2022-11-28T00:23:20.333Z,101945.59
2022-11-28T00:26:23.713Z,101943.00
2022-11-28T00:29:11.644Z,101939.75
2022-11-28T00:32:00.274Z,101933.00
2022-11-28T00:34:48.010Z,101936.59
2022-11-28T00:37:35.799Z,101941.59
2022-11-28T00:40:23.416Z,101932.19
2022-11-28T00:43:11.762Z,101936.47
2022-11-28T00:45:59.635Z,101941.75
2022-11-28T00:48:47.628Z,101939.91
2022-11-28T00:51:35.553Z,101937.28
2022-11-28T00:54:23.132Z,101933.84
2022-11-28T00:57:10.763Z,101934.94
2022-11-28T00:59:58.421Z,101935.09
2022-11-28T01:02:46.094Z,101939.44
2022-11-28T01:05:39.604Z,101931.75
2022-11-28T01:08:30.385Z,101936.03
2022-11-28T01:11:18.313Z,101936.94
2022-11-28T01:14:06.509Z,101939.44
2022-11-28T01:16:54.229Z,101937.75
2022-11-28T01:19:41.828Z,101937.69
2022-11-28T01:22:29.549Z,101942.69
2022-11-28T01:25:17.275Z,101944.44
2022-11-28T01:28:06.471Z,101938.59
2022-11-28T01:30:54.168Z,101948.69
2022-11-28T01:33:42.203Z,101949.41
2022-11-28T01:36:30.276Z,101950.16
2022-11-28T01:39:17.961Z,101941.03
2022-11-28T01:42:05.623Z,101942.84
2022-11-28T01:44:53.166Z,101938.69
2022-11-28T01:47:41.157Z,101941.44
2022-11-28T01:50:31.870Z,101942.25
2022-11-28T01:53:20.749Z,101943.09
2022-11-28T01:56:14.375Z,101938.84
2022-11-28T01:59:07.355Z,101944.06
2022-11-28T02:01:55.095Z,101943.38
2022-11-28T02:04:43.195Z,101945.22
2022-11-28T02:07:31.019Z,101955.50
2022-11-28T02:10:23.565Z,101952.06
2022-11-28T02:13:29.975Z,101951.13
2022-11-28T02:16:43.745Z,101951.91
2022-11-28T02:19:49.769Z,101949.50
2022-11-28T02:22:37.515Z,101964.94
2022-11-28T02:25:48.338Z,101970.97
2022-11-28T02:29:02.247Z,101971.25
2022-11-28T02:32:09.850Z,101981.50
2022-11-28T02:35:12.924Z,101990.06
2022-11-28T02:38:35.760Z,101982.66
2022-11-28T02:41:46.177Z,101987.81
2022-11-28T02:44:44.818Z,101984.56
2022-11-28T02:47:35.787Z,101981.28
2022-11-28T02:50:30.484Z,101986.38
2022-11-28T02:53:22.828Z,101993.13
2022-11-28T02:56:12.064Z,101995.72
2022-11-28T02:58:59.822Z,101987.19
2022-11-28T03:01:47.634Z,101993.16
2022-11-28T03:05:04.378Z,101999.94
2022-11-28T03:08:23.567Z,101990.63
2022-11-28T03:11:20.506Z,102002.47
2022-11-28T03:14:32.041Z,102006.66
2022-11-28T03:17:39.705Z,102013.56
2022-11-28T03:20:47.261Z,102004.28
2022-11-28T03:23:56.494Z,102003.41
2022-11-28T03:26:57.982Z,102007.66
2022-11-28T03:30:12.410Z,102005.03
2022-11-28T03:33:02.654Z,102013.72
2022-11-28T03:35:57.641Z,102011.28
2022-11-28T03:38:53.866Z,102004.50
2022-11-28T03:41:53.658Z,102012.13
2022-11-28T03:44:58.659Z,102012.00
2022-11-28T03:47:52.317Z,102026.31
2022-11-28T03:50:45.757Z,102028.75
2022-11-28T03:53:46.071Z,102023.63
2022-11-28T03:56:52.589Z,102020.38
2022-11-28T03:59:47.833Z,102020.59
2022-11-28T04:02:50.751Z,102021.50
2022-11-28T04:05:47.886Z,102028.38
2022-11-28T04:08:52.989Z,102029.97
2022-11-28T04:11:49.667Z,102032.50
2022-11-28T04:14:45.522Z,102035.09
2022-11-28T04:17:43.557Z,102037.69
2022-11-28T04:20:41.822Z,102036.03
2022-11-28T04:23:31.668Z,102035.22
2022-11-28T04:26:27.548Z,102036.09
2022-11-28T04:29:20.689Z,102036.09
2022-11-28T04:32:10.481Z,102033.47
2022-11-28T04:35:06.511Z,102033.41
2022-11-28T04:37:55.418Z,102036.69
2022-11-28T04:40:51.025Z,102030.56
2022-11-28T04:43:44.063Z,102033.91
2022-11-28T04:46:43.564Z,102037.28
2022-11-28T04:49:32.083Z,102043.31
2022-11-28T04:52:53.300Z,102041.59
2022-11-28T04:55:47.649Z,102042.50
2022-11-28T04:58:40.463Z,102043.31
2022-11-28T05:01:31.598Z,102056.03
2022-11-28T05:04:21.862Z,102050.91
2022-11-28T05:07:10.998Z,102057.72
2022-11-28T05:09:59.008Z,102061.94
2022-11-28T05:12:49.791Z,102058.47
2022-11-28T05:15:37.512Z,102062.66
2022-11-28T05:18:25.104Z,102065.22
2022-11-28T05:21:13.264Z,102072.81
2022-11-28T05:24:01.029Z,102070.25
2022-11-28T05:26:48.685Z,102071.03
2022-11-28T05:29:46.836Z,102076.88
2022-11-28T05:32:37.670Z,102076.03
2022-11-28T05:35:25.783Z,102077.72
2022-11-28T05:38:13.750Z,102083.78
2022-11-28T05:41:02.552Z,102087.13
2022-11-28T05:43:50.497Z,102090.50
2022-11-28T05:46:38.233Z,102096.34
2022-11-28T05:49:26.476Z,102100.66
2022-11-28T05:52:14.267Z,102111.69
2022-11-28T05:55:02.109Z,102115.06
2022-11-28T05:57:50.770Z,102119.31
2022-11-28T06:00:38.566Z,102115.94
2022-11-28T06:03:26.266Z,102115.84
2022-11-28T06:06:19.421Z,102117.47
2022-11-28T06:09:07.508Z,102110.69
2022-11-28T06:11:55.274Z,102109.75
2022-11-28T06:14:42.916Z,102108.84
2022-11-28T06:17:31.752Z,102112.13
2022-11-28T06:20:19.722Z,102112.06
2022-11-28T06:23:35.093Z,102111.97
2022-11-28T06:26:24.840Z,102113.66
2022-11-28T06:29:12.529Z,102110.19
2022-11-28T06:32:02.692Z,102115.19
2022-11-28T06:34:50.391Z,102122.81
2022-11-28T13:54:34.477Z,102260.97
2022-11-28T13:57:32.901Z,102257.69
2022-11-28T14:00:27.846Z,102266.97
2022-11-28T14:03:21.633Z,102263.53
2022-11-28T14:06:21.206Z,102265.28
2022-11-28T14:09:22.238Z,102271.19
2022-11-28T14:12:56.026Z,102276.22
2022-11-28T14:15:56.340Z,102277.06
2022-11-28T14:19:18.481Z,102269.44
2022-11-28T14:22:23.788Z,102275.47
2022-11-28T14:25:31.388Z,102283.03
2022-11-28T14:28:39.802Z,102282.19
2022-11-28T16:06:31.335Z,102286.09
2022-11-28T16:09:20.240Z,102294.72
2022-11-28T16:12:14.362Z,102281.25
2022-11-28T16:15:03.647Z,102294.81
2022-11-28T16:18:27.049Z,102291.63
2022-11-28T16:21:34.956Z,102292.38
2022-11-28T16:28:00.425Z,102296.75
2022-11-28T16:32:20.253Z,102291.69
2022-11-28T16:44:38.085Z,102289.88
2022-11-28T16:48:17.669Z,102298.38
2022-11-28T16:51:11.101Z,102299.31
2022-11-28T16:54:00.454Z,102295.25
2022-11-28T16:56:48.317Z,102291.03
2022-11-28T16:59:36.467Z,102298.66
2022-11-28T17:02:26.862Z,102295.22
2022-11-28T17:05:14.565Z,102297.72
2022-11-28T17:08:02.209Z,102297.75
2022-11-28T17:10:49.932Z,102302.88
2022-11-28T17:13:37.515Z,102303.72
2022-11-28T17:16:28.429Z,102308.84
2022-11-28T17:19:16.619Z,102311.44
2022-11-28T17:22:04.318Z,102307.06
2022-11-28T17:24:58.196Z,102311.31
2022-11-28T17:27:48.133Z,102310.50
2022-11-28T17:30:35.928Z,102307.22
2022-11-28T17:33:23.524Z,102307.22
2022-11-28T17:36:12.405Z,102314.81
2022-11-28T17:39:04.955Z,102310.50
2022-11-28T17:41:53.742Z,102319.00
2022-11-28T17:44:41.811Z,102313.97
2022-11-28T17:47:29.787Z,102318.25
2022-11-28T17:50:18.065Z,102326.72
2022-11-28T17:53:05.772Z,102325.91
2022-11-28T17:55:58.923Z,102336.97
2022-11-28T17:58:46.813Z,102323.47
2022-11-28T18:01:34.818Z,102321.78
2022-11-28T18:04:22.889Z,102325.16
2022-11-28T18:07:10.858Z,102333.59
2022-11-28T18:09:58.474Z,102333.44
2022-11-28T18:12:46.053Z,102333.31
2022-11-28T18:15:35.822Z,102323.06
2022-11-28T18:18:23.647Z,102323.03
2022-11-28T18:21:12.400Z,102330.75
2022-11-28T18:24:00.144Z,102334.31
2022-11-28T18:26:47.921Z,102333.44
2022-11-28T18:29:35.667Z,102326.63
2022-11-28T18:32:24.018Z,102322.34
2022-11-28T18:35:11.814Z,102323.13
2022-11-28T18:37:59.521Z,102321.41
2022-11-28T18:40:47.141Z,102326.31
2022-11-28T18:43:34.850Z,102322.03
2022-11-28T18:46:23.631Z,102322.91
2022-11-28T18:49:16.591Z,102320.41
2022-11-28T18:52:04.370Z,102323.84
2022-11-28T18:54:52.114Z,102327.25
2022-11-28T18:57:41.375Z,102328.94
2022-11-28T19:00:29.070Z,102328.16
2022-11-28T19:03:16.667Z,102329.88
2022-11-28T19:06:12.064Z,102335.69
2022-11-28T19:09:01.620Z,102331.50
2022-11-28T19:11:49.637Z,102333.31
2022-11-28T19:14:38.958Z,102334.22
2022-11-28T19:17:26.587Z,102336.84
2022-11-28T19:20:14.257Z,102337.66
2022-11-28T19:23:08.444Z,102331.69
2022-11-28T19:26:11.180Z,102329.06
2022-11-28T19:29:02.495Z,102327.44
2022-11-28T19:31:50.356Z,102330.78
2022-11-28T19:34:37.992Z,102320.66
2022-11-28T19:37:28.335Z,102328.34
2022-11-28T19:40:16.323Z,102340.28
2022-11-28T19:43:04.170Z,102325.78
2022-11-28T19:45:56.770Z,102330.78
2022-11-28T19:48:44.926Z,102333.22
2022-11-28T19:51:33.609Z,102339.09
2022-11-28T19:54:24.871Z,102333.09
2022-11-28T19:57:15.507Z,102341.63
2022-11-28T20:00:06.085Z,102345.91
2022-11-28T20:03:01.969Z,102343.38
2022-11-28T20:05:49.810Z,102343.34
2022-11-28T20:08:38.896Z,102350.97
2022-11-28T20:11:30.977Z,102349.19
2022-11-28T20:14:20.245Z,102355.09
2022-11-28T20:17:08.320Z,102350.03
2022-11-28T20:19:55.978Z,102361.00
2022-11-28T20:22:44.568Z,102356.78
2022-11-28T20:25:33.312Z,102361.03
2022-11-28T20:28:20.926Z,102357.66
2022-11-28T20:31:20.996Z,102361.03
2022-11-28T20:34:08.614Z,102353.38
2022-11-28T20:36:59.302Z,102361.75
2022-11-28T20:39:47.538Z,102365.94
2022-11-28T20:42:39.666Z,102364.22
2022-11-28T20:45:27.805Z,102369.25
2022-11-28T20:48:15.634Z,102365.03
2022-11-28T20:51:04.569Z,102373.59
2022-11-28T20:53:53.647Z,102381.25
2022-11-28T20:57:12.771Z,102372.78
2022-11-28T20:59:50.915Z,102376.16
2022-11-28T21:02:38.669Z,102376.97
2022-11-28T21:05:26.365Z,102365.91
2022-11-28T21:08:13.974Z,102369.34
2022-11-28T21:11:09.131Z,102375.34
2022-11-28T21:13:57.141Z,102374.50
2022-11-28T21:16:44.846Z,102381.25
2022-11-28T21:19:32.612Z,102382.28
2022-11-28T21:22:20.163Z,102392.50
2022-11-28T21:25:07.799Z,102395.00
2022-11-28T21:27:55.503Z,102388.22
2022-11-28T21:30:46.218Z,102388.31
2022-11-28T21:33:33.883Z,102389.94
2022-11-28T21:36:22.431Z,102398.38
2022-11-28T21:39:14.092Z,102381.31
2022-11-28T21:42:02.826Z,102387.22
2022-11-28T21:44:50.408Z,102387.16
2022-11-28T21:47:38.027Z,102384.69
2022-11-28T21:50:25.834Z,102389.00
2022-11-28T21:53:16.812Z,102392.38
2022-11-28T21:56:04.949Z,102389.03
2022-11-28T21:58:52.871Z,102381.47
2022-11-28T22:01:40.699Z,102398.47
2022-11-28T22:04:29.565Z,102391.69
2022-11-28T22:07:17.906Z,102383.22
2022-11-28T22:10:06.726Z,102384.94
2022-11-28T22:12:54.746Z,102384.94
2022-11-28T22:15:45.925Z,102388.41
2022-11-28T22:18:34.658Z,102392.69
2022-11-28T22:21:51.221Z,102391.88
2022-11-28T22:24:30.009Z,102395.25
2022-11-28T22:27:17.852Z,102392.75
2022-11-28T22:30:06.589Z,102395.25
2022-11-28T22:32:54.225Z,102394.34
2022-11-28T22:35:41.975Z,102393.50
2022-11-28T22:38:29.576Z,102389.22
2022-11-28T22:41:26.434Z,102378.25
2022-11-28T22:44:16.614Z,102381.72
2022-11-28T22:47:04.557Z,102382.63
2022-11-28T22:49:53.932Z,102387.69
2022-11-28T22:52:41.711Z,102381.75
2022-11-28T22:55:29.295Z,102391.09
2022-11-28T22:58:16.961Z,102390.31
2022-11-28T23:01:09.574Z,102391.16
2022-11-28T23:03:57.331Z,102395.44
2022-11-28T23:06:44.957Z,102398.00
2022-11-28T23:09:33.467Z,102401.47
2022-11-28T23:12:21.062Z,102397.25
2022-11-28T23:15:09.716Z,102396.38
2022-11-28T23:17:57.393Z,102392.97
2022-11-28T23:20:45.046Z,102398.09
2022-11-28T23:23:35.263Z,102397.25
2022-11-28T23:26:25.713Z,102392.97
2022-11-28T23:29:14.642Z,102401.44
2022-11-28T23:32:02.930Z,102398.09
2022-11-28T23:34:50.905Z,102395.56
2022-11-28T23:37:39.790Z,102390.56
2022-11-28T23:40:28.703Z,102390.56
2022-11-28T23:43:16.269Z,102392.22
2022-11-28T23:46:04.382Z,102390.44
2022-11-28T23:48:52.587Z,102393.81
2022-11-28T23:51:41.078Z,102391.31
2022-11-28T23:54:28.647Z,102396.38
2022-11-28T23:57:16.795Z,102395.53
